Time;durP1;ratioP1;P1;durP2;ratioP2;P2;SDS_P1;SDS_P2;PMS_P1;PMS_P2;Temp;Humidity;BMP_temperature;BMP_pressure;BME280_temperature;BME280_humidity;BME280_pressure;Samples;Min_cycle;Max_cycle;Signal;HPM_P1;HPM_P2
2023/01/11 00:01:49;;;;;;;1.30;1.30;;;17.40;69.80;;;;;;5093528;27;43370;-72
2023/01/11 00:04:17;;;;;;;1.20;1.20;;;17.40;69.60;;;;;;5076622;27;43888;-72
2023/01/11 00:06:45;;;;;;;1.10;1.10;;;17.50;69.30;;;;;;5100022;27;43337;-72
2023/01/11 00:09:14;;;;;;;1.20;1.20;;;17.70;68.90;;;;;;5094121;27;44859;-71
2023/01/11 00:11:42;;;;;;;1.10;1.10;;;17.70;68.60;;;;;;5100344;27;43804;-70
2023/01/11 00:14:10;;;;;;;1.10;1.10;;;17.70;68.70;;;;;;5102528;27;43433;-71
2023/01/11 00:16:39;;;;;;;1.20;1.20;;;17.60;68.80;;;;;;5099600;27;44239;-71
2023/01/11 00:19:07;;;;;;;1.20;1.20;;;17.60;68.70;;;;;;5098713;27;44023;-71
2023/01/11 00:21:35;;;;;;;1.17;1.17;;;17.60;68.80;;;;;;5101058;27;43477;-72
2023/01/11 00:24:03;;;;;;;1.20;1.20;;;17.60;69.00;;;;;;5094665;27;44376;-70
2023/01/11 00:26:31;;;;;;;1.23;1.23;;;17.50;69.00;;;;;;5078654;27;43435;-71
2023/01/11 00:28:59;;;;;;;1.00;1.00;;;17.50;69.20;;;;;;5097794;27;43849;-71
2023/01/11 00:31:27;;;;;;;1.27;1.27;;;17.40;69.30;;;;;;5100487;27;43406;-71
2023/01/11 00:33:59;;;;;;;1.20;1.20;;;17.40;69.20;;;;;;5099037;27;43465;-71
2023/01/11 00:36:27;;;;;;;1.20;1.20;;;17.40;69.30;;;;;;5096692;27;43557;-72
2023/01/11 00:38:55;;;;;;;1.20;1.20;;;17.40;69.40;;;;;;5100655;27;43757;-72
2023/01/11 00:49:41;;;;;;;1.00;1.00;;;17.40;70.20;;;;;;5091228;27;43857;-72
2023/01/11 00:52:09;;;;;;;1.20;1.20;;;17.40;69.50;;;;;;5095259;27;44054;-71
2023/01/11 00:54:37;;;;;;;1.20;1.20;;;17.40;69.50;;;;;;5095664;27;43464;-71
2023/01/11 00:57:06;;;;;;;1.30;1.30;;;17.40;69.60;;;;;;5100738;27;43518;-72
2023/01/11 00:59:34;;;;;;;1.20;1.20;;;17.40;69.60;;;;;;5079483;27;45832;-72
2023/01/11 01:02:02;;;;;;;1.17;1.17;;;17.40;69.70;;;;;;5085986;27;45768;-70
2023/01/11 01:04:30;;;;;;;1.13;1.13;;;17.40;69.70;;;;;;5097703;27;44032;-72
2023/01/11 01:06:59;;;;;;;1.10;1.10;;;17.50;69.50;;;;;;5098844;27;43403;-71
2023/01/11 01:09:27;;;;;;;1.00;1.00;;;17.60;69.00;;;;;;5100596;27;43935;-70
2023/01/11 01:11:55;;;;;;;1.20;1.20;;;17.60;68.70;;;;;;5105992;27;43455;-70
2023/01/11 01:14:25;;;;;;;1.10;1.10;;;17.60;68.70;;;;;;5103842;27;43454;-73
2023/01/11 01:16:53;;;;;;;1.20;1.20;;;17.60;68.80;;;;;;5085160;27;43622;-72
2023/01/11 01:19:21;;;;;;;1.10;1.10;;;17.60;69.00;;;;;;5102229;27;43769;-72
2023/01/11 01:21:49;;;;;;;1.10;1.10;;;17.60;68.90;;;;;;5100550;27;43408;-69
2023/01/11 01:24:18;;;;;;;1.00;1.00;;;17.50;69.00;;;;;;5086861;27;44051;-71
2023/01/11 01:26:46;;;;;;;1.10;1.10;;;17.50;69.10;;;;;;5083204;27;43544;-72
2023/01/11 01:29:14;;;;;;;1.20;1.20;;;17.50;69.30;;;;;;5105502;27;43584;-71
2023/01/11 01:31:42;;;;;;;1.10;1.10;;;17.40;69.20;;;;;;5101187;27;43390;-72
2023/01/11 01:34:11;;;;;;;1.00;1.00;;;17.40;69.40;;;;;;5100068;27;43501;-71
2023/01/11 01:36:38;;;;;;;1.00;1.00;;;17.40;69.30;;;;;;5105290;27;43346;-70
2023/01/11 01:39:07;;;;;;;1.10;1.10;;;17.40;69.40;;;;;;5104440;27;44634;-71
2023/01/11 01:41:36;;;;;;;1.00;1.00;;;17.40;69.50;;;;;;5079370;28;44683;-70
2023/01/11 01:44:05;;;;;;;1.03;1.03;;;17.40;69.50;;;;;;5105321;27;43343;-72
2023/01/11 01:46:33;;;;;;;0.90;0.90;;;17.40;69.60;;;;;;5082232;27;43584;-71
2023/01/11 01:49:03;;;;;;;1.20;1.20;;;17.40;69.70;;;;;;5095882;27;43666;-70
2023/01/11 01:51:32;;;;;;;1.00;1.00;;;17.40;69.50;;;;;;5086213;28;44255;-72
2023/01/11 01:54:02;;;;;;;0.83;0.83;;;17.40;69.60;;;;;;5103905;27;43438;-71
2023/01/11 01:56:33;;;;;;;0.90;0.90;;;17.40;69.60;;;;;;5101565;27;43812;-71
2023/01/11 01:59:04;;;;;;;1.00;1.00;;;17.40;69.60;;;;;;5099668;27;43912;-71
2023/01/11 02:01:47;;;;;;;0.97;0.97;;;17.40;69.70;;;;;;5097690;27;43411;-71
2023/01/11 02:04:19;;;;;;;1.00;1.00;;;17.30;69.70;;;;;;5099235;27;43412;-73
2023/01/11 02:06:47;;;;;;;1.20;1.20;;;17.40;69.70;;;;;;5101450;27;43545;-71
2023/01/11 02:09:19;;;;;;;1.00;1.00;;;17.50;69.30;;;;;;5099187;27;44039;-71
2023/01/11 02:11:47;;;;;;;1.10;1.10;;;17.60;68.90;;;;;;5084022;27;44721;-71
2023/01/11 02:14:17;;;;;;;1.10;1.10;;;17.60;68.70;;;;;;5102776;27;43451;-72
2023/01/11 02:16:45;;;;;;;0.90;0.90;;;17.60;68.70;;;;;;5102512;27;44008;-73
2023/01/11 02:19:20;;;;;;;1.10;1.10;;;17.60;68.90;;;;;;5102260;27;44029;-70
2023/01/11 02:21:56;;;;;;;1.30;1.30;;;17.50;69.00;;;;;;5101778;27;43301;-71
2023/01/11 02:24:38;;;;;;;1.10;1.10;;;17.50;68.90;;;;;;5081066;28;44062;-71
2023/01/11 02:27:30;;;;;;;1.10;1.10;;;17.50;69.10;;;;;;5102887;27;43977;-72
2023/01/11 02:30:12;;;;;;;1.00;1.00;;;17.50;69.30;;;;;;5092600;27;43928;-70
2023/01/11 02:32:44;;;;;;;1.03;1.03;;;17.40;69.30;;;;;;5100547;27;43390;-70
2023/01/11 03:29:54;;;;;;;0.90;0.90;;;17.50;69.00;;;;;;4994408;27;43517;-71
2023/01/11 03:32:28;;;;;;;0.90;0.90;;;17.50;69.30;;;;;;5084637;27;46056;-72
2023/01/11 03:35:05;;;;;;;1.13;1.13;;;17.40;69.30;;;;;;5098616;27;43462;-71
2023/01/11 03:37:34;;;;;;;1.10;1.10;;;17.40;69.50;;;;;;5100693;27;43497;-71
2023/01/11 03:40:05;;;;;;;0.90;0.90;;;17.40;69.50;;;;;;5103432;27;43429;-71
2023/01/11 03:42:33;;;;;;;1.00;1.00;;;17.40;69.50;;;;;;5097176;27;43931;-71
2023/01/11 03:45:02;;;;;;;0.90;0.90;;;17.40;69.50;;;;;;5100742;27;43505;-71
2023/01/11 03:47:31;;;;;;;1.00;1.00;;;17.40;69.50;;;;;;5077856;28;43569;-72
2023/01/11 03:50:01;;;;;;;0.90;0.90;;;17.40;69.60;;;;;;5097947;27;43500;-71
2023/01/11 03:52:30;;;;;;;1.00;1.00;;;17.30;69.70;;;;;;5101470;27;43908;-71
2023/01/11 03:54:58;;;;;;;1.00;1.00;;;17.40;69.70;;;;;;5098805;27;43499;-71
2023/01/11 03:57:28;;;;;;;0.87;0.87;;;17.50;69.40;;;;;;5100492;27;43393;-71
2023/01/11 03:59:56;;;;;;;0.87;0.87;;;17.60;69.10;;;;;;5085860;27;43458;-72
2023/01/11 04:02:27;;;;;;;0.90;0.90;;;17.60;68.90;;;;;;5102866;27;43903;-72
2023/01/11 04:04:54;;;;;;;0.80;0.80;;;17.50;69.00;;;;;;5089930;27;43457;-70
2023/01/11 04:07:22;;;;;;;0.97;0.97;;;17.50;69.10;;;;;;5099161;27;43934;-71
2023/01/11 04:09:50;;;;;;;0.90;0.90;;;17.50;69.20;;;;;;5104796;27;43458;-71
2023/01/11 04:12:18;;;;;;;0.93;0.93;;;17.50;69.20;;;;;;5095844;27;43920;-74
2023/01/11 04:14:46;;;;;;;0.80;0.80;;;17.40;69.20;;;;;;5102898;27;43588;-72
2023/01/11 04:17:14;;;;;;;0.70;0.70;;;17.40;69.30;;;;;;5102538;27;43569;-70
2023/01/11 04:19:43;;;;;;;0.83;0.83;;;17.40;69.50;;;;;;5073556;27;43527;-71
2023/01/11 04:22:11;;;;;;;0.90;0.90;;;17.40;69.60;;;;;;5083572;27;43888;-71
2023/01/11 04:24:39;;;;;;;0.90;0.90;;;17.40;69.60;;;;;;5098437;27;43429;-70
2023/01/11 04:27:07;;;;;;;0.90;0.90;;;17.40;69.60;;;;;;5099982;27;43348;-70
2023/01/11 04:29:35;;;;;;;0.97;0.97;;;17.40;69.70;;;;;;5097073;27;43555;-70
2023/01/11 04:32:03;;;;;;;0.80;0.80;;;17.30;69.60;;;;;;5099668;27;43841;-70
2023/01/11 04:34:31;;;;;;;0.87;0.87;;;17.30;69.70;;;;;;5099589;27;43571;-72
2023/01/11 04:37:00;;;;;;;0.67;0.67;;;17.30;69.80;;;;;;5082996;27;43980;-72
2023/01/11 04:39:28;;;;;;;0.90;0.90;;;17.30;69.90;;;;;;5099074;27;43506;-71
2023/01/11 04:44:41;;;;;;;0.73;0.73;;;17.50;69.40;;;;;;5091026;27;43386;-71
2023/01/11 04:47:09;;;;;;;0.70;0.70;;;17.50;69.10;;;;;;5097935;27;43849;-71
2023/01/11 04:49:37;;;;;;;0.80;0.80;;;17.50;69.20;;;;;;5095740;27;43478;-72
2023/01/11 04:52:06;;;;;;;0.90;0.90;;;17.50;69.30;;;;;;5094621;27;43606;-73
2023/01/11 04:54:34;;;;;;;0.80;0.80;;;17.40;69.40;;;;;;5080637;27;44634;-71
2023/01/11 04:57:02;;;;;;;0.80;0.80;;;17.40;69.30;;;;;;5095013;27;43536;-72
2023/01/11 04:59:30;;;;;;;0.97;0.97;;;17.40;69.40;;;;;;5093265;27;43520;-72
2023/01/11 05:01:58;;;;;;;0.80;0.80;;;17.40;69.40;;;;;;5101958;27;43893;-70
2023/01/11 05:04:26;;;;;;;0.90;0.90;;;17.40;69.50;;;;;;5097047;27;43913;-72
2023/01/11 05:06:54;;;;;;;1.07;1.07;;;17.40;69.60;;;;;;5103959;27;44009;-70
2023/01/11 05:09:23;;;;;;;0.70;0.70;;;17.30;69.60;;;;;;5101991;27;43316;-71
2023/01/11 05:11:51;;;;;;;1.00;1.00;;;17.30;69.60;;;;;;5099217;27;44605;-73
2023/01/11 05:14:19;;;;;;;0.67;0.67;;;17.30;69.70;;;;;;5082852;27;45085;-71
2023/01/11 05:16:47;;;;;;;0.80;0.80;;;17.30;69.70;;;;;;5098126;27;43375;-71
2023/01/11 05:19:15;;;;;;;0.80;0.80;;;17.30;69.80;;;;;;5100832;27;43997;-72
2023/01/11 05:21:42;;;;;;;0.70;0.70;;;17.30;69.80;;;;;;5078939;27;45671;-70
2023/01/11 05:24:12;;;;;;;0.90;0.90;;;17.30;69.70;;;;;;5100442;27;43398;-72
2023/01/11 05:26:42;;;;;;;0.70;0.70;;;17.30;69.90;;;;;;5096426;27;43465;-73
2023/01/11 05:29:11;;;;;;;0.80;0.80;;;17.40;69.70;;;;;;5098510;27;43956;-70
2023/01/11 05:31:40;;;;;;;0.70;0.70;;;17.50;69.30;;;;;;5097686;27;43980;-73
2023/01/11 05:34:09;;;;;;;0.60;0.60;;;17.70;68.90;;;;;;5100843;27;43904;-71
2023/01/11 05:36:37;;;;;;;0.80;0.80;;;17.90;68.50;;;;;;5080248;27;43403;-70
2023/01/11 05:39:05;;;;;;;0.80;0.80;;;18.00;67.90;;;;;;5084879;27;43570;-72
2023/01/11 05:41:33;;;;;;;0.67;0.67;;;18.20;67.40;;;;;;5090437;27;43877;-72
2023/01/11 05:46:47;;;;;;;0.63;0.63;;;18.40;66.70;;;;;;5087861;27;43442;-71
2023/01/11 05:49:15;;;;;;;0.80;0.80;;;18.50;66.20;;;;;;5079471;27;43650;-71
2023/01/11 05:51:43;;;;;;;0.63;0.63;;;18.60;65.90;;;;;;5101506;27;43615;-71
2023/01/11 05:54:12;;;;;;;0.70;0.70;;;18.70;65.90;;;;;;5100320;27;43479;-71
2023/01/11 05:56:41;;;;;;;0.70;0.70;;;18.70;65.90;;;;;;5099011;27;43398;-71
2023/01/11 05:59:10;;;;;;;0.80;0.80;;;18.50;66.00;;;;;;5106736;27;43489;-73
2023/01/11 06:01:38;;;;;;;0.70;0.70;;;18.40;66.40;;;;;;5093597;27;43599;-70
2023/01/11 06:04:07;;;;;;;0.80;0.80;;;18.20;66.70;;;;;;5096137;27;43450;-71
2023/01/11 06:06:35;;;;;;;0.70;0.70;;;18.10;67.50;;;;;;5088810;27;43460;-72
2023/01/11 06:09:03;;;;;;;0.80;0.80;;;18.10;67.70;;;;;;5104865;27;43565;-72
2023/01/11 06:11:31;;;;;;;0.53;0.53;;;18.00;67.70;;;;;;5102088;27;43960;-73
2023/01/11 06:13:59;;;;;;;0.60;0.60;;;17.90;67.80;;;;;;5095957;27;44063;-70
2023/01/11 06:16:28;;;;;;;0.70;0.70;;;17.80;68.10;;;;;;5099460;27;43825;-71
2023/01/11 06:18:56;;;;;;;0.60;0.60;;;17.70;68.40;;;;;;5099295;27;43420;-71
2023/01/11 06:21:24;;;;;;;0.70;0.70;;;17.70;68.80;;;;;;5105694;27;43746;-71
2023/01/11 06:23:52;;;;;;;0.63;0.63;;;17.60;68.60;;;;;;5079675;27;45166;-70
2023/01/11 06:26:21;;;;;;;0.60;0.60;;;17.60;68.60;;;;;;5106325;27;44294;-71
2023/01/11 06:28:49;;;;;;;0.60;0.60;;;17.60;68.70;;;;;;5097787;27;43941;-70
2023/01/11 06:31:17;;;;;;;0.70;0.70;;;17.50;68.70;;;;;;5105062;27;43847;-72
2023/01/11 06:33:47;;;;;;;0.70;0.70;;;17.50;69.10;;;;;;5103778;27;43634;-71
2023/01/11 06:36:15;;;;;;;0.77;0.77;;;17.50;69.40;;;;;;5082784;27;44050;-70
2023/01/11 06:38:43;;;;;;;0.70;0.70;;;17.60;69.20;;;;;;5098503;27;43510;-71
2023/01/11 06:41:11;;;;;;;0.70;0.70;;;17.70;68.80;;;;;;5100535;27;44042;-72
2023/01/11 06:43:40;;;;;;;0.73;0.73;;;17.80;68.50;;;;;;5101278;27;43480;-70
2023/01/11 06:46:12;;;;;;;0.73;0.73;;;17.80;68.20;;;;;;5088355;27;43423;-72
2023/01/11 06:48:40;;;;;;;0.73;0.73;;;17.80;68.40;;;;;;5107916;27;43489;-72
2023/01/11 06:51:10;;;;;;;0.70;0.70;;;17.80;68.70;;;;;;5091044;27;43979;-70
2023/01/11 06:53:38;;;;;;;0.90;0.90;;;17.80;68.50;;;;;;5103978;27;44078;-70
2023/01/11 06:56:07;;;;;;;0.80;0.80;;;17.70;68.40;;;;;;5099050;27;43410;-71
2023/01/11 06:58:37;;;;;;;0.70;0.70;;;17.70;68.50;;;;;;5105160;27;43956;-71
2023/01/11 07:01:06;;;;;;;0.97;0.97;;;17.60;68.60;;;;;;5099495;27;43837;-71
2023/01/11 07:03:34;;;;;;;0.60;0.60;;;17.60;68.90;;;;;;5102917;27;44150;-72
2023/01/11 07:06:03;;;;;;;0.87;0.87;;;17.60;69.10;;;;;;5103398;27;43412;-71
2023/01/11 07:08:32;;;;;;;0.80;0.80;;;17.60;69.00;;;;;;5099559;27;43646;-71
2023/01/11 07:11:00;;;;;;;0.87;0.87;;;17.50;69.00;;;;;;5086420;27;46098;-70
2023/01/11 07:13:28;;;;;;;0.90;0.90;;;17.50;69.00;;;;;;5102218;27;43488;-70
2023/01/11 07:15:57;;;;;;;0.80;0.80;;;17.50;69.10;;;;;;5104925;27;43462;-70
2023/01/11 07:18:25;;;;;;;0.90;0.90;;;17.50;69.40;;;;;;5100922;27;43526;-72
2023/01/11 07:20:53;;;;;;;0.80;0.77;;;17.50;69.60;;;;;;5098982;27;44082;-71
2023/01/11 07:23:21;;;;;;;0.87;0.87;;;17.60;69.30;;;;;;5084541;27;44701;-70
2023/01/11 07:25:50;;;;;;;0.80;0.80;;;17.60;68.90;;;;;;5103985;27;43417;-71
2023/01/11 07:28:18;;;;;;;0.80;0.80;;;17.60;68.80;;;;;;5102297;27;43570;-70
2023/01/11 07:30:46;;;;;;;0.70;0.70;;;17.60;68.80;;;;;;5085087;27;45330;-72
2023/01/11 07:33:25;;;;;;;0.90;0.90;;;17.60;69.00;;;;;;5081999;27;44877;-71
2023/01/11 07:35:53;;;;;;;0.80;0.80;;;17.50;69.20;;;;;;5098892;27;43958;-71
2023/01/11 07:38:21;;;;;;;0.93;0.93;;;17.50;69.00;;;;;;5092639;27;43427;-72
2023/01/11 07:40:51;;;;;;;0.73;0.73;;;17.50;69.00;;;;;;5102937;27;43880;-70
2023/01/11 07:43:20;;;;;;;1.00;1.00;;;17.50;69.00;;;;;;5096273;27;43454;-70
2023/01/11 07:45:49;;;;;;;0.80;0.80;;;17.50;69.10;;;;;;5105698;27;43461;-70
2023/01/11 07:48:19;;;;;;;0.93;0.93;;;17.50;69.30;;;;;;5099075;27;43479;-71
2023/01/11 07:50:47;;;;;;;0.80;0.80;;;17.50;69.60;;;;;;5078624;28;46090;-70
2023/01/11 07:53:17;;;;;;;0.80;0.80;;;17.60;69.40;;;;;;5099281;27;43410;-71
2023/01/11 07:55:46;;;;;;;0.80;0.80;;;17.60;69.00;;;;;;5096249;27;43848;-72
2023/01/11 07:58:15;;;;;;;0.70;0.70;;;17.60;68.70;;;;;;5083569;28;43639;-70
2023/01/11 08:00:44;;;;;;;0.60;0.60;;;17.60;68.70;;;;;;5102175;27;44028;-72
2023/01/11 08:03:12;;;;;;;0.90;0.90;;;17.60;68.80;;;;;;5099829;27;44114;-71
2023/01/11 08:05:40;;;;;;;0.77;0.77;;;17.60;69.20;;;;;;5097364;27;43330;-72
2023/01/11 08:08:08;;;;;;;0.70;0.70;;;17.60;69.00;;;;;;5088586;27;43470;-71
2023/01/11 08:10:36;;;;;;;0.70;0.70;;;17.60;68.90;;;;;;5070664;28;46959;-72
2023/01/11 08:16:07;;;;;;;0.80;0.80;;;17.50;69.10;;;;;;5027751;28;43596;-72
2023/01/11 08:18:35;;;;;;;0.90;0.90;;;17.50;69.30;;;;;;5073793;27;43504;-72
2023/01/11 08:21:04;;;;;;;0.70;0.70;;;17.50;69.50;;;;;;5099518;27;43862;-70
2023/01/11 08:23:32;;;;;;;0.70;0.70;;;17.50;69.30;;;;;;5080853;27;44837;-72
2023/01/11 08:25:59;;;;;;;0.60;0.60;;;17.50;69.40;;;;;;5102559;27;43386;-71
2023/01/11 08:28:27;;;;;;;0.73;0.73;;;17.50;70.10;;;;;;5078674;27;43423;-71
2023/01/11 08:30:55;;;;;;;0.77;0.77;;;17.40;69.30;;;;;;5091034;27;43922;-73
2023/01/11 08:33:25;;;;;;;0.77;0.77;;;17.40;69.60;;;;;;5088727;27;44580;-71
2023/01/11 08:35:52;;;;;;;0.80;0.80;;;17.40;69.50;;;;;;5067785;28;43503;-70
2023/01/11 08:38:20;;;;;;;0.90;0.90;;;17.40;69.50;;;;;;5090768;27;43988;-72
2023/01/11 08:40:48;;;;;;;0.80;0.80;;;17.40;69.50;;;;;;5087570;27;44004;-71
2023/01/11 08:43:16;;;;;;;0.70;0.70;;;17.40;69.50;;;;;;5088500;27;43466;-71
2023/01/11 08:45:44;;;;;;;0.60;0.60;;;17.40;69.60;;;;;;5071406;27;43367;-72
2023/01/11 08:48:12;;;;;;;0.60;0.60;;;17.40;69.80;;;;;;5097114;27;43459;-70
2023/01/11 08:50:43;;;;;;;0.90;0.90;;;17.40;69.80;;;;;;5078288;28;46085;-72
2023/01/11 08:53:12;;;;;;;0.80;0.80;;;17.50;69.60;;;;;;5100223;27;43421;-70
2023/01/11 08:55:43;;;;;;;0.90;0.90;;;17.70;69.20;;;;;;5077631;28;44068;-70
2023/01/11 08:58:11;;;;;;;0.80;0.80;;;17.70;68.80;;;;;;5099427;27;43373;-72
2023/01/11 09:00:39;;;;;;;0.90;0.90;;;17.70;68.80;;;;;;5097051;27;43661;-71
2023/01/11 09:03:07;;;;;;;0.80;0.80;;;17.60;69.70;;;;;;5085951;27;45721;-72
2023/01/11 09:05:35;;;;;;;0.77;0.77;;;17.60;68.90;;;;;;5098354;27;43357;-72
2023/01/11 09:08:04;;;;;;;0.63;0.63;;;17.60;68.90;;;;;;5100788;27;43428;-71
2023/01/11 09:10:32;;;;;;;0.80;0.80;;;17.60;69.00;;;;;;5100283;27;43924;-71
2023/01/11 09:13:00;;;;;;;0.60;0.60;;;17.60;69.10;;;;;;5088696;27;43424;-72
2023/01/11 09:15:28;;;;;;;0.73;0.73;;;17.50;69.20;;;;;;5101922;27;43323;-70
2023/01/11 09:17:56;;;;;;;0.83;0.83;;;17.50;69.40;;;;;;5074812;28;43523;-71
2023/01/11 09:20:24;;;;;;;0.73;0.73;;;17.50;69.50;;;;;;5100008;27;43865;-71
2023/01/11 09:22:52;;;;;;;0.63;0.63;;;17.50;69.50;;;;;;5100089;27;43962;-71
2023/01/11 09:25:22;;;;;;;0.87;0.87;;;17.40;69.50;;;;;;5104269;27;43395;-72
2023/01/11 09:27:50;;;;;;;0.80;0.80;;;17.40;69.50;;;;;;5097362;27;43477;-72
2023/01/11 09:30:20;;;;;;;0.80;0.80;;;17.40;69.60;;;;;;5083189;27;46582;-70
2023/01/11 09:32:48;;;;;;;0.90;0.90;;;17.40;69.80;;;;;;5102584;27;43543;-70
2023/01/11 09:35:17;;;;;;;0.70;0.70;;;17.40;69.80;;;;;;5085389;27;43458;-72
2023/01/11 09:37:48;;;;;;;0.80;0.80;;;17.50;69.60;;;;;;5105590;27;43733;-72
2023/01/11 09:40:18;;;;;;;0.57;0.57;;;17.60;69.20;;;;;;5087823;27;43889;-72
2023/01/11 09:42:48;;;;;;;0.77;0.77;;;17.60;69.10;;;;;;5100010;27;44003;-71
2023/01/11 09:45:18;;;;;;;0.80;0.80;;;17.60;69.20;;;;;;5103847;27;44675;-72
2023/01/11 09:47:48;;;;;;;0.87;0.87;;;17.50;69.30;;;;;;5104050;27;43924;-71
2023/01/11 09:50:18;;;;;;;0.80;0.80;;;17.50;69.50;;;;;;5080220;27;45795;-71
2023/01/11 09:52:50;;;;;;;0.70;0.70;;;17.50;69.30;;;;;;5083493;27;45053;-70
2023/01/11 09:55:23;;;;;;;0.73;0.73;;;17.50;69.40;;;;;;5097208;27;43467;-71
2023/01/11 09:58:03;;;;;;;0.70;0.70;;;17.50;69.40;;;;;;5103270;27;43943;-72
2023/01/11 10:00:36;;;;;;;0.67;0.67;;;17.40;69.50;;;;;;5099627;27;43928;-72
2023/01/11 10:03:18;;;;;;;0.60;0.60;;;17.40;69.70;;;;;;5101580;27;44012;-73
2023/01/11 10:06:01;;;;;;;0.90;0.90;;;17.40;69.80;;;;;;5100611;27;43453;-71
2023/01/11 10:08:42;;;;;;;0.70;0.70;;;17.50;69.60;;;;;;5101060;27;43442;-71
2023/01/11 10:11:34;;;;;;;0.80;0.80;;;17.60;69.10;;;;;;5098653;27;43770;-71
2023/01/11 10:14:28;;;;;;;0.80;0.80;;;17.60;68.90;;;;;;5099322;27;43379;-71
2023/01/11 10:17:21;;;;;;;0.83;0.83;;;17.60;69.00;;;;;;5096435;27;43466;-71
2023/01/11 10:20:19;;;;;;;0.70;0.70;;;17.60;69.40;;;;;;5078400;27;43529;-72
2023/01/11 10:22:47;;;;;;;0.70;0.70;;;17.50;69.10;;;;;;5101455;27;43859;-71
2023/01/11 10:25:20;;;;;;;0.90;0.90;;;17.50;69.20;;;;;;5096743;27;43990;-70
2023/01/11 10:27:52;;;;;;;1.30;1.30;;;17.50;69.30;;;;;;5100243;27;43390;-71
2023/01/11 10:30:39;;;;;;;1.90;1.90;;;17.50;69.40;;;;;;5098397;27;43474;-71
2023/01/11 10:33:24;;;;;;;2.03;1.93;;;17.40;69.50;;;;;;5103661;27;43606;-70
2023/01/11 10:36:12;;;;;;;3.37;3.27;;;17.40;69.60;;;;;;5100117;27;43478;-71
2023/01/11 10:38:58;;;;;;;5.30;5.10;;;17.40;69.50;;;;;;5073333;27;43630;-71
2023/01/11 10:41:32;;;;;;;5.97;5.67;;;17.40;69.50;;;;;;5105757;27;43375;-71
2023/01/11 10:44:04;;;;;;;6.20;5.90;;;17.40;69.50;;;;;;5103457;27;43579;-71
2023/01/11 10:46:34;;;;;;;4.23;4.03;;;17.40;69.60;;;;;;5104801;27;44090;-72
2023/01/11 10:49:08;;;;;;;4.63;4.43;;;17.40;69.80;;;;;;5083134;28;43387;-71
2023/01/11 10:51:37;;;;;;;5.20;5.00;;;17.40;69.60;;;;;;5083455;27;43642;-71
2023/01/11 10:54:16;;;;;;;5.40;5.20;;;17.40;69.50;;;;;;5100234;27;44045;-72
2023/01/11 10:56:55;;;;;;;6.20;5.90;;;17.40;69.60;;;;;;5071941;27;44622;-71
2023/01/11 10:59:41;;;;;;;5.50;5.30;;;17.40;69.60;;;;;;5073848;27;43437;-72
2023/01/11 11:02:17;;;;;;;4.87;4.57;;;17.40;69.60;;;;;;5096091;27;43434;-71
2023/01/11 11:05:11;;;;;;;5.47;5.10;;;17.40;70.00;;;;;;5091160;27;43982;-71
2023/01/11 11:07:42;;;;;;;4.93;4.70;;;17.50;69.90;;;;;;5092257;27;43538;-73
2023/01/11 11:10:12;;;;;;;5.27;5.00;;;17.60;69.50;;;;;;5097783;27;44060;-71
2023/01/11 11:12:42;;;;;;;5.63;5.33;;;17.70;69.10;;;;;;5104278;27;43974;-72
2023/01/11 11:15:13;;;;;;;5.50;5.20;;;17.70;68.80;;;;;;5105906;27;43991;-72
2023/01/11 11:17:45;;;;;;;5.30;5.00;;;17.70;68.90;;;;;;5100943;27;43442;-72
2023/01/11 11:20:14;;;;;;;5.33;4.97;;;17.70;69.20;;;;;;5100230;27;43963;-71
2023/01/11 11:22:43;;;;;;;5.43;5.23;;;17.70;69.00;;;;;;5100027;27;43417;-71
2023/01/11 11:25:15;;;;;;;4.90;4.70;;;17.60;69.00;;;;;;5101200;27;43901;-71
2023/01/11 11:27:44;;;;;;;4.67;4.50;;;17.60;69.10;;;;;;5081945;27;44842;-73
2023/01/11 11:30:13;;;;;;;5.27;4.87;;;17.60;69.20;;;;;;5104005;27;43497;-71
2023/01/11 11:32:44;;;;;;;4.60;4.47;;;17.50;69.30;;;;;;5101855;27;43476;-72
2023/01/11 11:35:28;;;;;;;5.20;4.90;;;17.50;69.60;;;;;;5100295;27;43963;-70
2023/01/11 11:37:56;;;;;;;4.90;4.70;;;17.50;69.40;;;;;;5088318;27;43418;-72
2023/01/11 11:40:30;;;;;;;4.60;4.40;;;17.50;69.50;;;;;;5107244;27;43379;-72
2023/01/11 11:43:11;;;;;;;5.07;4.80;;;17.50;69.50;;;;;;5096130;27;43419;-70
2023/01/11 11:45:50;;;;;;;4.83;4.63;;;17.50;69.60;;;;;;5082516;27;46101;-71
2023/01/11 11:48:19;;;;;;;4.70;4.50;;;17.40;69.60;;;;;;5101808;27;43359;-72
2023/01/11 11:50:47;;;;;;;4.90;4.57;;;17.40;69.80;;;;;;5084734;27;44575;-72
2023/01/11 11:53:31;;;;;;;4.10;4.00;;;17.40;69.60;;;;;;5102520;27;43455;-71
2023/01/11 11:55:58;;;;;;;4.50;4.30;;;17.40;69.60;;;;;;5089468;27;43749;-73
2023/01/11 11:58:26;;;;;;;4.53;4.40;;;17.50;69.70;;;;;;5100875;27;43379;-71
2023/01/11 12:00:54;;;;;;;4.13;4.03;;;17.40;69.70;;;;;;5098416;27;43462;-72
2023/01/11 12:03:28;;;;;;;4.63;4.43;;;17.40;69.80;;;;;;5100844;27;43461;-72
2023/01/11 12:05:59;;;;;;;4.83;4.60;;;17.40;69.90;;;;;;5095083;27;43872;-71
2023/01/11 12:08:27;;;;;;;4.03;3.87;;;17.50;69.80;;;;;;5095491;27;44006;-71
2023/01/11 12:10:57;;;;;;;4.60;4.40;;;17.60;69.40;;;;;;5083036;27;43499;-71
2023/01/11 12:13:27;;;;;;;4.30;4.07;;;17.70;68.90;;;;;;5100120;27;43827;-72
2023/01/11 12:15:56;;;;;;;4.07;3.90;;;17.80;68.80;;;;;;5096426;27;43665;-72
2023/01/11 12:18:26;;;;;;;4.03;3.83;;;17.70;68.80;;;;;;5097954;27;43489;-71
2023/01/11 12:20:54;;;;;;;4.10;4.00;;;17.70;69.20;;;;;;5105403;27;43442;-72
2023/01/11 12:23:23;;;;;;;4.30;4.10;;;17.70;68.90;;;;;;5102349;27;44294;-71
2023/01/11 12:26:12;;;;;;;4.47;4.27;;;17.60;69.00;;;;;;5098698;27;43687;-72
2023/01/11 12:28:50;;;;;;;4.23;4.03;;;17.60;69.10;;;;;;5097997;27;43833;-71
2023/01/11 12:31:20;;;;;;;4.20;4.00;;;17.60;69.30;;;;;;5092062;27;43523;-71
2023/01/11 12:33:51;;;;;;;4.00;3.90;;;17.50;69.40;;;;;;5100802;27;43394;-71
2023/01/11 12:36:24;;;;;;;4.30;4.10;;;17.50;69.60;;;;;;5095347;27;43607;-72
2023/01/11 12:38:59;;;;;;;3.93;3.83;;;17.50;69.40;;;;;;5103597;27;43604;-71
2023/01/11 12:41:51;;;;;;;4.27;4.10;;;17.50;69.50;;;;;;5097220;27;43410;-71
2023/01/11 12:44:43;;;;;;;4.23;4.03;;;17.50;69.60;;;;;;5087166;27;43444;-72
2023/01/11 12:48:08;;;;;;;3.77;3.67;;;17.50;69.60;;;;;;5084220;27;43879;-72
2023/01/11 12:50:41;;;;;;;4.03;3.83;;;17.40;69.80;;;;;;5014148;28;43445;-72
2023/01/11 12:53:26;;;;;;;3.97;3.80;;;17.40;69.60;;;;;;5061334;27;43922;-72
2023/01/11 12:56:00;;;;;;;3.80;3.70;;;17.40;69.60;;;;;;5090621;27;43954;-71
2023/01/11 12:58:31;;;;;;;3.63;3.53;;;17.40;69.60;;;;;;5103826;27;44033;-70
2023/01/11 13:01:08;;;;;;;3.70;3.60;;;17.40;69.70;;;;;;5099859;27;43496;-70
2023/01/11 13:03:56;;;;;;;3.57;3.47;;;17.40;69.70;;;;;;5096624;27;43460;-72
2023/01/11 13:06:27;;;;;;;4.40;4.10;;;17.40;70.00;;;;;;5099505;27;44148;-71
2023/01/11 13:09:01;;;;;;;4.33;4.03;;;17.50;69.80;;;;;;5086067;27;45773;-71
2023/01/11 13:11:36;;;;;;;4.10;3.70;;;17.60;70.10;;;;;;5092014;27;43943;-72
2023/01/11 13:14:18;;;;;;;4.37;4.07;;;17.70;69.10;;;;;;5075086;27;43456;-73
2023/01/11 13:16:51;;;;;;;4.60;4.30;;;17.70;68.80;;;;;;5097019;27;43484;-73
2023/01/11 13:19:21;;;;;;;6.97;5.37;;;17.70;69.00;;;;;;5096128;27;43952;-71
2023/01/11 13:21:52;;;;;;;6.10;5.27;;;17.70;69.30;;;;;;5089858;27;45098;-70
2023/01/11 13:24:24;;;;;;;5.80;5.03;;;17.60;69.00;;;;;;5083147;27;43548;-72
2023/01/11 13:26:52;;;;;;;6.50;5.00;;;17.60;69.10;;;;;;5105358;27;43569;-72
2023/01/11 13:29:24;;;;;;;4.97;4.50;;;17.60;69.30;;;;;;5096659;27;43728;-71
2023/01/11 13:31:53;;;;;;;7.07;4.90;;;17.50;69.30;;;;;;5096063;27;43437;-72
2023/01/11 13:34:24;;;;;;;6.90;5.10;;;17.50;69.50;;;;;;5102617;27;43419;-71
2023/01/11 13:36:57;;;;;;;6.70;5.07;;;17.50;69.70;;;;;;5106871;27;44077;-71
2023/01/11 13:39:29;;;;;;;6.43;5.37;;;17.50;69.60;;;;;;5094459;27;43717;-72
2023/01/11 13:41:58;;;;;;;6.43;5.40;;;17.50;69.60;;;;;;5090847;27;43474;-71
2023/01/11 13:44:27;;;;;;;7.23;5.33;;;17.50;69.60;;;;;;5098649;27;44015;-71
2023/01/11 13:47:00;;;;;;;10.10;5.97;;;17.50;69.60;;;;;;5104572;27;43453;-72
2023/01/11 13:49:38;;;;;;;6.90;5.50;;;17.40;69.60;;;;;;5102077;27;43951;-71
2023/01/11 13:52:11;;;;;;;7.63;5.63;;;17.40;69.80;;;;;;5101295;27;43401;-71
2023/01/11 13:54:41;;;;;;;6.63;5.20;;;17.50;69.70;;;;;;5078481;27;44011;-72
2023/01/11 13:57:12;;;;;;;6.70;5.50;;;17.40;69.70;;;;;;5103606;27;43368;-71
2023/01/11 13:59:43;;;;;;;7.83;5.33;;;17.40;69.70;;;;;;5081307;27;46290;-70
2023/01/11 14:02:13;;;;;;;7.40;5.77;;;17.40;69.70;;;;;;5088546;27;44807;-72
2023/01/11 14:04:44;;;;;;;7.93;5.77;;;17.40;69.90;;;;;;5103553;27;43491;-71
2023/01/11 14:07:21;;;;;;;9.00;5.50;;;17.40;70.10;;;;;;5104822;27;43438;-72
2023/01/11 14:10:08;;;;;;;6.83;5.60;;;17.50;69.90;;;;;;5079258;28;46177;-70
2023/01/11 14:12:44;;;;;;;8.57;5.53;;;17.60;69.50;;;;;;5078533;27;44404;-71
2023/01/11 14:15:20;;;;;;;9.43;5.63;;;17.70;69.10;;;;;;5100535;27;43882;-72
2023/01/11 14:18:23;;;;;;;6.20;5.47;;;17.70;69.10;;;;;;5099159;27;43429;-71
2023/01/11 14:20:56;;;;;;;5.70;5.10;;;17.60;69.30;;;;;;5087072;27;44043;-71